sensor_id;sensor_type;location;lat;lon;timestamp;temperature;humidity
75615;DHT22;64199;48.578;-4.520;2023-02-23T00:00:08;21.50;53.70
75615;DHT22;64199;48.578;-4.520;2023-02-23T00:02:57;21.50;53.70
75615;DHT22;64199;48.578;-4.520;2023-02-23T00:05:28;21.50;53.70
75615;DHT22;64199;48.578;-4.520;2023-02-23T00:07:54;21.60;53.70
75615;DHT22;64199;48.578;-4.520;2023-02-23T00:10:21;21.60;53.70
75615;DHT22;64199;48.578;-4.520;2023-02-23T00:12:49;21.70;53.70
75615;DHT22;64199;48.578;-4.520;2023-02-23T00:15:16;21.60;53.60
75615;DHT22;64199;48.578;-4.520;2023-02-23T00:17:42;21.70;53.60
75615;DHT22;64199;48.578;-4.520;2023-02-23T00:20:09;21.70;53.60
75615;DHT22;64199;48.578;-4.520;2023-02-23T00:22:36;21.70;53.60
75615;DHT22;64199;48.578;-4.520;2023-02-23T00:25:03;21.70;53.60
75615;DHT22;64199;48.578;-4.520;2023-02-23T00:27:33;21.80;53.60
75615;DHT22;64199;48.578;-4.520;2023-02-23T00:29:59;21.80;53.50
75615;DHT22;64199;48.578;-4.520;2023-02-23T00:32:25;21.80;53.50
75615;DHT22;64199;48.578;-4.520;2023-02-23T00:34:50;21.80;53.50
75615;DHT22;64199;48.578;-4.520;2023-02-23T00:37:17;21.90;53.50
75615;DHT22;64199;48.578;-4.520;2023-02-23T00:39:43;21.90;53.40
75615;DHT22;64199;48.578;-4.520;2023-02-23T00:42:08;21.90;53.40
75615;DHT22;64199;48.578;-4.520;2023-02-23T00:44:34;21.90;53.30
75615;DHT22;64199;48.578;-4.520;2023-02-23T00:47:00;21.90;53.30
75615;DHT22;64199;48.578;-4.520;2023-02-23T00:49:26;21.90;53.30
75615;DHT22;64199;48.578;-4.520;2023-02-23T00:51:52;22.00;53.30
75615;DHT22;64199;48.578;-4.520;2023-02-23T00:54:18;22.00;53.30
75615;DHT22;64199;48.578;-4.520;2023-02-23T00:56:45;22.00;53.30
75615;DHT22;64199;48.578;-4.520;2023-02-23T00:59:11;22.10;53.40
75615;DHT22;64199;48.578;-4.520;2023-02-23T01:01:37;22.00;53.30
75615;DHT22;64199;48.578;-4.520;2023-02-23T01:04:04;22.10;53.30
75615;DHT22;64199;48.578;-4.520;2023-02-23T01:06:30;22.10;53.30
75615;DHT22;64199;48.578;-4.520;2023-02-23T01:08:55;22.20;53.30
75615;DHT22;64199;48.578;-4.520;2023-02-23T01:11:22;22.20;53.30
75615;DHT22;64199;48.578;-4.520;2023-02-23T01:13:50;22.20;53.30
75615;DHT22;64199;48.578;-4.520;2023-02-23T01:16:16;22.20;53.30
75615;DHT22;64199;48.578;-4.520;2023-02-23T01:18:43;22.20;53.30
75615;DHT22;64199;48.578;-4.520;2023-02-23T01:21:13;22.30;53.30
75615;DHT22;64199;48.578;-4.520;2023-02-23T01:23:39;22.20;53.20
75615;DHT22;64199;48.578;-4.520;2023-02-23T01:26:04;22.30;53.20
75615;DHT22;64199;48.578;-4.520;2023-02-23T01:28:30;22.30;53.20
75615;DHT22;64199;48.578;-4.520;2023-02-23T01:30:56;22.30;53.20
75615;DHT22;64199;48.578;-4.520;2023-02-23T01:33:21;22.30;53.20
75615;DHT22;64199;48.578;-4.520;2023-02-23T01:35:57;22.30;53.10
75615;DHT22;64199;48.578;-4.520;2023-02-23T01:38:23;22.30;53.20
75615;DHT22;64199;48.578;-4.520;2023-02-23T01:40:48;22.30;53.10
75615;DHT22;64199;48.578;-4.520;2023-02-23T01:43:15;22.30;53.10
75615;DHT22;64199;48.578;-4.520;2023-02-23T01:45:42;22.40;53.10
75615;DHT22;64199;48.578;-4.520;2023-02-23T01:48:16;22.40;53.10
75615;DHT22;64199;48.578;-4.520;2023-02-23T01:50:53;22.50;53.10
75615;DHT22;64199;48.578;-4.520;2023-02-23T01:53:20;22.40;53.10
75615;DHT22;64199;48.578;-4.520;2023-02-23T01:55:51;22.50;53.00
75615;DHT22;64199;48.578;-4.520;2023-02-23T01:58:19;22.50;53.00
75615;DHT22;64199;48.578;-4.520;2023-02-23T02:00:50;22.50;53.10
75615;DHT22;64199;48.578;-4.520;2023-02-23T02:03:22;22.50;53.10
75615;DHT22;64199;48.578;-4.520;2023-02-23T02:05:50;22.50;53.00
75615;DHT22;64199;48.578;-4.520;2023-02-23T02:08:16;22.50;53.00
75615;DHT22;64199;48.578;-4.520;2023-02-23T02:10:43;22.50;53.00
75615;DHT22;64199;48.578;-4.520;2023-02-23T02:13:14;22.50;52.90
75615;DHT22;64199;48.578;-4.520;2023-02-23T02:15:47;22.50;52.80
75615;DHT22;64199;48.578;-4.520;2023-02-23T02:18:25;22.50;52.90
75615;DHT22;64199;48.578;-4.520;2023-02-23T02:21:00;22.50;52.90
75615;DHT22;64199;48.578;-4.520;2023-02-23T02:23:34;22.50;52.90
75615;DHT22;64199;48.578;-4.520;2023-02-23T02:47:22;22.70;52.60
75615;DHT22;64199;48.578;-4.520;2023-02-23T02:52:56;22.70;52.60
75615;DHT22;64199;48.578;-4.520;2023-02-23T02:55:23;22.70;52.60
75615;DHT22;64199;48.578;-4.520;2023-02-23T02:57:50;22.70;52.60
75615;DHT22;64199;48.578;-4.520;2023-02-23T03:00:18;22.70;52.60
75615;DHT22;64199;48.578;-4.520;2023-02-23T03:03:03;22.70;52.60
75615;DHT22;64199;48.578;-4.520;2023-02-23T03:05:48;22.80;52.50
75615;DHT22;64199;48.578;-4.520;2023-02-23T03:11:20;22.70;52.60
75615;DHT22;64199;48.578;-4.520;2023-02-23T03:14:16;22.70;52.60
75615;DHT22;64199;48.578;-4.520;2023-02-23T03:20:10;22.80;52.60
75615;DHT22;64199;48.578;-4.520;2023-02-23T03:23:20;22.80;52.50
75615;DHT22;64199;48.578;-4.520;2023-02-23T03:26:07;22.80;52.40
75615;DHT22;64199;48.578;-4.520;2023-02-23T03:31:45;22.80;52.30
75615;DHT22;64199;48.578;-4.520;2023-02-23T03:34:32;22.80;52.30
75615;DHT22;64199;48.578;-4.520;2023-02-23T03:37:27;22.80;52.20
75615;DHT22;64199;48.578;-4.520;2023-02-23T03:43:03;22.80;52.20
75615;DHT22;64199;48.578;-4.520;2023-02-23T03:45:48;22.80;52.20
75615;DHT22;64199;48.578;-4.520;2023-02-23T03:48:34;22.80;52.20
75615;DHT22;64199;48.578;-4.520;2023-02-23T03:51:20;22.80;52.20
75615;DHT22;64199;48.578;-4.520;2023-02-23T03:54:09;22.80;52.20
75615;DHT22;64199;48.578;-4.520;2023-02-23T03:56:55;22.80;52.10
75615;DHT22;64199;48.578;-4.520;2023-02-23T03:59:43;22.80;52.20
75615;DHT22;64199;48.578;-4.520;2023-02-23T04:02:29;22.80;52.10
75615;DHT22;64199;48.578;-4.520;2023-02-23T04:05:15;22.80;52.10
75615;DHT22;64199;48.578;-4.520;2023-02-23T04:08:01;22.80;52.30
75615;DHT22;64199;48.578;-4.520;2023-02-23T04:10:48;22.90;52.30
75615;DHT22;64199;48.578;-4.520;2023-02-23T04:13:33;22.80;52.30
75615;DHT22;64199;48.578;-4.520;2023-02-23T04:16:00;22.80;52.60
75615;DHT22;64199;48.578;-4.520;2023-02-23T04:18:30;22.80;52.60
75615;DHT22;64199;48.578;-4.520;2023-02-23T04:20:57;22.80;52.50
75615;DHT22;64199;48.578;-4.520;2023-02-23T04:23:23;22.80;52.30
75615;DHT22;64199;48.578;-4.520;2023-02-23T04:25:52;22.70;52.30
75615;DHT22;64199;48.578;-4.520;2023-02-23T04:28:19;22.70;52.30
75615;DHT22;64199;48.578;-4.520;2023-02-23T04:30:44;22.60;52.30
75615;DHT22;64199;48.578;-4.520;2023-02-23T04:33:10;22.60;52.30
75615;DHT22;64199;48.578;-4.520;2023-02-23T04:35:36;22.50;52.40
75615;DHT22;64199;48.578;-4.520;2023-02-23T04:38:02;22.50;52.40
75615;DHT22;64199;48.578;-4.520;2023-02-23T04:40:28;22.40;52.40
75615;DHT22;64199;48.578;-4.520;2023-02-23T04:42:54;22.40;52.40
75615;DHT22;64199;48.578;-4.520;2023-02-23T04:45:19;22.30;52.40
75615;DHT22;64199;48.578;-4.520;2023-02-23T04:47:46;22.30;52.50
75615;DHT22;64199;48.578;-4.520;2023-02-23T04:50:12;22.20;52.50
75615;DHT22;64199;48.578;-4.520;2023-02-23T04:52:38;22.20;52.60
75615;DHT22;64199;48.578;-4.520;2023-02-23T04:55:04;22.10;52.60
75615;DHT22;64199;48.578;-4.520;2023-02-23T04:57:31;22.10;52.70
75615;DHT22;64199;48.578;-4.520;2023-02-23T04:59:57;22.00;52.70
75615;DHT22;64199;48.578;-4.520;2023-02-23T05:02:23;22.00;52.90
75615;DHT22;64199;48.578;-4.520;2023-02-23T05:04:49;21.90;52.80
75615;DHT22;64199;48.578;-4.520;2023-02-23T05:07:15;21.90;52.90
75615;DHT22;64199;48.578;-4.520;2023-02-23T05:09:41;21.80;52.90
75615;DHT22;64199;48.578;-4.520;2023-02-23T05:12:07;21.80;53.10
75615;DHT22;64199;48.578;-4.520;2023-02-23T05:14:32;21.70;53.20
75615;DHT22;64199;48.578;-4.520;2023-02-23T05:16:58;21.70;53.40
75615;DHT22;64199;48.578;-4.520;2023-02-23T05:19:24;21.60;54.00
75615;DHT22;64199;48.578;-4.520;2023-02-23T05:21:50;21.50;54.00
75615;DHT22;64199;48.578;-4.520;2023-02-23T05:24:16;21.50;53.40
75615;DHT22;64199;48.578;-4.520;2023-02-23T05:26:42;21.50;53.40
75615;DHT22;64199;48.578;-4.520;2023-02-23T05:29:08;21.40;53.40
75615;DHT22;64199;48.578;-4.520;2023-02-23T05:31:33;21.40;53.50
75615;DHT22;64199;48.578;-4.520;2023-02-23T05:33:59;21.30;53.50
75615;DHT22;64199;48.578;-4.520;2023-02-23T05:36:25;21.30;53.60
75615;DHT22;64199;48.578;-4.520;2023-02-23T05:38:50;21.20;53.60
75615;DHT22;64199;48.578;-4.520;2023-02-23T05:41:18;21.10;53.60
75615;DHT22;64199;48.578;-4.520;2023-02-23T05:43:43;21.10;53.70
75615;DHT22;64199;48.578;-4.520;2023-02-23T05:46:10;21.10;53.80
75615;DHT22;64199;48.578;-4.520;2023-02-23T05:48:36;21.00;53.80
75615;DHT22;64199;48.578;-4.520;2023-02-23T05:51:02;21.00;53.90
75615;DHT22;64199;48.578;-4.520;2023-02-23T05:53:28;20.90;53.90
75615;DHT22;64199;48.578;-4.520;2023-02-23T05:55:54;20.90;54.00
75615;DHT22;64199;48.578;-4.520;2023-02-23T05:58:19;20.90;54.00
75615;DHT22;64199;48.578;-4.520;2023-02-23T06:00:45;20.80;53.90
75615;DHT22;64199;48.578;-4.520;2023-02-23T06:03:11;20.80;54.00
75615;DHT22;64199;48.578;-4.520;2023-02-23T06:05:36;20.80;54.00
75615;DHT22;64199;48.578;-4.520;2023-02-23T06:08:02;20.80;54.20
75615;DHT22;64199;48.578;-4.520;2023-02-23T06:10:28;20.70;54.00
75615;DHT22;64199;48.578;-4.520;2023-02-23T06:12:53;20.70;54.10
75615;DHT22;64199;48.578;-4.520;2023-02-23T06:15:19;20.60;54.10
75615;DHT22;64199;48.578;-4.520;2023-02-23T06:17:45;20.60;54.20
75615;DHT22;64199;48.578;-4.520;2023-02-23T06:20:10;20.60;54.20
75615;DHT22;64199;48.578;-4.520;2023-02-23T06:22:36;20.60;54.20
75615;DHT22;64199;48.578;-4.520;2023-02-23T06:25:02;20.50;54.20
75615;DHT22;64199;48.578;-4.520;2023-02-23T06:27:29;20.50;54.20
75615;DHT22;64199;48.578;-4.520;2023-02-23T06:29:55;20.50;54.20
75615;DHT22;64199;48.578;-4.520;2023-02-23T06:32:20;20.50;54.10
75615;DHT22;64199;48.578;-4.520;2023-02-23T06:34:46;20.50;54.00
75615;DHT22;64199;48.578;-4.520;2023-02-23T06:37:12;20.50;54.00
75615;DHT22;64199;48.578;-4.520;2023-02-23T06:39:38;20.60;54.00
75615;DHT22;64199;48.578;-4.520;2023-02-23T06:42:03;20.60;54.10
75615;DHT22;64199;48.578;-4.520;2023-02-23T06:44:29;20.60;54.00
75615;DHT22;64199;48.578;-4.520;2023-02-23T06:46:55;20.60;54.00
75615;DHT22;64199;48.578;-4.520;2023-02-23T06:49:21;20.70;54.20
75615;DHT22;64199;48.578;-4.520;2023-02-23T06:51:46;20.70;54.20
75615;DHT22;64199;48.578;-4.520;2023-02-23T06:54:12;20.80;54.30
75615;DHT22;64199;48.578;-4.520;2023-02-23T06:56:38;20.70;54.30
75615;DHT22;64199;48.578;-4.520;2023-02-23T06:59:03;20.70;54.30
75615;DHT22;64199;48.578;-4.520;2023-02-23T07:01:29;20.80;54.40
75615;DHT22;64199;48.578;-4.520;2023-02-23T07:03:55;20.80;54.30
75615;DHT22;64199;48.578;-4.520;2023-02-23T07:06:21;20.80;54.20
75615;DHT22;64199;48.578;-4.520;2023-02-23T07:08:46;20.80;54.20
75615;DHT22;64199;48.578;-4.520;2023-02-23T07:11:13;20.90;54.20
75615;DHT22;64199;48.578;-4.520;2023-02-23T07:13:40;20.90;54.20
75615;DHT22;64199;48.578;-4.520;2023-02-23T07:16:06;20.90;54.20
75615;DHT22;64199;48.578;-4.520;2023-02-23T07:18:32;20.90;54.20
75615;DHT22;64199;48.578;-4.520;2023-02-23T07:20:58;20.90;54.20
75615;DHT22;64199;48.578;-4.520;2023-02-23T07:23:23;21.00;54.20
75615;DHT22;64199;48.578;-4.520;2023-02-23T07:25:49;21.00;54.20
75615;DHT22;64199;48.578;-4.520;2023-02-23T07:28:15;21.00;54.20
75615;DHT22;64199;48.578;-4.520;2023-02-23T07:30:41;21.00;54.20
75615;DHT22;64199;48.578;-4.520;2023-02-23T07:33:07;21.10;54.20
75615;DHT22;64199;48.578;-4.520;2023-02-23T07:35:33;21.10;54.20
75615;DHT22;64199;48.578;-4.520;2023-02-23T07:37:58;21.10;54.20
75615;DHT22;64199;48.578;-4.520;2023-02-23T07:40:24;21.10;54.20
75615;DHT22;64199;48.578;-4.520;2023-02-23T07:42:50;21.10;54.20
75615;DHT22;64199;48.578;-4.520;2023-02-23T07:45:16;21.20;54.20
75615;DHT22;64199;48.578;-4.520;2023-02-23T07:47:42;21.20;54.20
75615;DHT22;64199;48.578;-4.520;2023-02-23T07:50:08;21.20;54.20
75615;DHT22;64199;48.578;-4.520;2023-02-23T07:52:38;21.20;54.30
75615;DHT22;64199;48.578;-4.520;2023-02-23T07:55:04;21.30;54.40
75615;DHT22;64199;48.578;-4.520;2023-02-23T07:57:30;21.20;54.50
75615;DHT22;64199;48.578;-4.520;2023-02-23T07:59:56;21.30;54.50
75615;DHT22;64199;48.578;-4.520;2023-02-23T08:02:21;21.30;54.40
75615;DHT22;64199;48.578;-4.520;2023-02-23T08:04:47;21.30;54.30
75615;DHT22;64199;48.578;-4.520;2023-02-23T08:07:13;21.30;54.20
75615;DHT22;64199;48.578;-4.520;2023-02-23T08:09:38;21.30;54.20
75615;DHT22;64199;48.578;-4.520;2023-02-23T08:12:04;21.40;54.20
75615;DHT22;64199;48.578;-4.520;2023-02-23T08:14:30;21.40;54.20
75615;DHT22;64199;48.578;-4.520;2023-02-23T08:16:56;21.40;54.10
75615;DHT22;64199;48.578;-4.520;2023-02-23T08:19:22;21.40;54.00
75615;DHT22;64199;48.578;-4.520;2023-02-23T08:21:48;21.50;54.10
75615;DHT22;64199;48.578;-4.520;2023-02-23T08:24:14;21.40;54.00
75615;DHT22;64199;48.578;-4.520;2023-02-23T08:26:42;21.50;54.00
75615;DHT22;64199;48.578;-4.520;2023-02-23T08:29:08;21.50;54.10
75615;DHT22;64199;48.578;-4.520;2023-02-23T08:31:34;21.50;53.90
75615;DHT22;64199;48.578;-4.520;2023-02-23T08:33:59;21.50;53.80
75615;DHT22;64199;48.578;-4.520;2023-02-23T08:36:25;21.50;53.80
75615;DHT22;64199;48.578;-4.520;2023-02-23T08:38:51;21.60;53.80
75615;DHT22;64199;48.578;-4.520;2023-02-23T08:41:18;21.60;53.70
75615;DHT22;64199;48.578;-4.520;2023-02-23T08:43:44;21.60;53.70
75615;DHT22;64199;48.578;-4.520;2023-02-23T08:46:10;21.60;53.70
75615;DHT22;64199;48.578;-4.520;2023-02-23T08:48:36;21.60;53.60
75615;DHT22;64199;48.578;-4.520;2023-02-23T08:51:05;21.60;53.60
75615;DHT22;64199;48.578;-4.520;2023-02-23T08:53:31;21.70;53.60
75615;DHT22;64199;48.578;-4.520;2023-02-23T08:56:00;21.70;53.60
75615;DHT22;64199;48.578;-4.520;2023-02-23T08:58:27;21.70;53.50
75615;DHT22;64199;48.578;-4.520;2023-02-23T09:00:53;21.70;53.50
75615;DHT22;64199;48.578;-4.520;2023-02-23T09:03:19;21.70;53.40
75615;DHT22;64199;48.578;-4.520;2023-02-23T09:05:45;21.70;53.40
75615;DHT22;64199;48.578;-4.520;2023-02-23T09:08:11;21.80;53.40
75615;DHT22;64199;48.578;-4.520;2023-02-23T09:10:37;21.80;53.30
75615;DHT22;64199;48.578;-4.520;2023-02-23T09:13:03;21.80;53.40
75615;DHT22;64199;48.578;-4.520;2023-02-23T09:15:29;21.80;53.30
75615;DHT22;64199;48.578;-4.520;2023-02-23T09:17:58;21.80;53.20
75615;DHT22;64199;48.578;-4.520;2023-02-23T09:20:24;21.90;53.30
75615;DHT22;64199;48.578;-4.520;2023-02-23T09:22:51;21.90;53.30
75615;DHT22;64199;48.578;-4.520;2023-02-23T09:25:18;21.90;53.20
75615;DHT22;64199;48.578;-4.520;2023-02-23T09:27:47;21.90;53.20
75615;DHT22;64199;48.578;-4.520;2023-02-23T09:30:14;21.90;53.20
75615;DHT22;64199;48.578;-4.520;2023-02-23T09:32:49;21.90;53.20
75615;DHT22;64199;48.578;-4.520;2023-02-23T09:35:15;21.90;53.20
75615;DHT22;64199;48.578;-4.520;2023-02-23T09:37:43;21.90;53.20
75615;DHT22;64199;48.578;-4.520;2023-02-23T09:40:13;22.00;53.20
75615;DHT22;64199;48.578;-4.520;2023-02-23T09:42:41;22.00;53.20
75615;DHT22;64199;48.578;-4.520;2023-02-23T09:50:29;22.10;53.20
75615;DHT22;64199;48.578;-4.520;2023-02-23T09:53:06;22.10;53.20
75615;DHT22;64199;48.578;-4.520;2023-02-23T09:55:32;22.10;53.20
75615;DHT22;64199;48.578;-4.520;2023-02-23T09:58:02;22.10;53.20
75615;DHT22;64199;48.578;-4.520;2023-02-23T10:00:30;22.10;53.20
75615;DHT22;64199;48.578;-4.520;2023-02-23T10:03:05;22.10;53.30
75615;DHT22;64199;48.578;-4.520;2023-02-23T10:05:34;22.20;53.30
75615;DHT22;64199;48.578;-4.520;2023-02-23T10:08:06;22.20;53.30
75615;DHT22;64199;48.578;-4.520;2023-02-23T10:10:43;22.20;53.30
75615;DHT22;64199;48.578;-4.520;2023-02-23T10:16:06;22.20;53.20
75615;DHT22;64199;48.578;-4.520;2023-02-23T10:21:07;22.30;53.30
75615;DHT22;64199;48.578;-4.520;2023-02-23T10:26:37;22.30;53.00
75615;DHT22;64199;48.578;-4.520;2023-02-23T10:31:59;22.80;52.80
75615;DHT22;64199;48.578;-4.520;2023-02-23T10:34:26;23.10;52.00
75615;DHT22;64199;48.578;-4.520;2023-02-23T10:36:57;23.40;51.40
75615;DHT22;64199;48.578;-4.520;2023-02-23T10:39:23;23.50;50.90
75615;DHT22;64199;48.578;-4.520;2023-02-23T10:41:49;23.70;50.50
75615;DHT22;64199;48.578;-4.520;2023-02-23T10:44:24;23.70;50.10
75615;DHT22;64199;48.578;-4.520;2023-02-23T10:46:56;23.80;49.90
75615;DHT22;64199;48.578;-4.520;2023-02-23T10:49:24;23.90;49.90
75615;DHT22;64199;48.578;-4.520;2023-02-23T10:51:54;23.90;49.90
75615;DHT22;64199;48.578;-4.520;2023-02-23T10:57:00;23.90;49.90
75615;DHT22;64199;48.578;-4.520;2023-02-23T10:59:26;23.90;49.70
75615;DHT22;64199;48.578;-4.520;2023-02-23T11:01:52;23.90;49.60
75615;DHT22;64199;48.578;-4.520;2023-02-23T11:04:22;23.90;49.50
75615;DHT22;64199;48.578;-4.520;2023-02-23T11:06:49;23.90;49.50
75615;DHT22;64199;48.578;-4.520;2023-02-23T11:09:30;23.90;49.50
75615;DHT22;64199;48.578;-4.520;2023-02-23T11:14:23;23.90;49.60
75615;DHT22;64199;48.578;-4.520;2023-02-23T11:16:49;23.80;49.60
75615;DHT22;64199;48.578;-4.520;2023-02-23T11:19:36;23.80;49.60
75615;DHT22;64199;48.578;-4.520;2023-02-23T11:22:02;23.80;50.00
75615;DHT22;64199;48.578;-4.520;2023-02-23T11:24:31;23.80;49.70
75615;DHT22;64199;48.578;-4.520;2023-02-23T11:26:59;23.80;49.80
75615;DHT22;64199;48.578;-4.520;2023-02-23T11:29:43;23.80;49.80
75615;DHT22;64199;48.578;-4.520;2023-02-23T11:34:40;23.70;49.90
75615;DHT22;64199;48.578;-4.520;2023-02-23T11:39:50;23.70;50.00
75615;DHT22;64199;48.578;-4.520;2023-02-23T11:42:17;23.70;49.90
75615;DHT22;64199;48.578;-4.520;2023-02-23T11:45:05;23.70;50.00
75615;DHT22;64199;48.578;-4.520;2023-02-23T11:47:29;23.70;50.00
75615;DHT22;64199;48.578;-4.520;2023-02-23T11:49:56;23.70;50.00
75615;DHT22;64199;48.578;-4.520;2023-02-23T11:52:22;23.80;50.10
75615;DHT22;64199;48.578;-4.520;2023-02-23T11:54:55;23.70;50.00
75615;DHT22;64199;48.578;-4.520;2023-02-23T11:57:22;23.70;50.10
75615;DHT22;64199;48.578;-4.520;2023-02-23T11:59:48;23.70;50.10
75615;DHT22;64199;48.578;-4.520;2023-02-23T12:04:47;23.70;50.20
75615;DHT22;64199;48.578;-4.520;2023-02-23T12:07:18;23.70;50.20
75615;DHT22;64199;48.578;-4.520;2023-02-23T12:09:46;23.70;50.30
75615;DHT22;64199;48.578;-4.520;2023-02-23T12:12:15;23.70;50.30
75615;DHT22;64199;48.578;-4.520;2023-02-23T12:14:43;23.70;50.90
75615;DHT22;64199;48.578;-4.520;2023-02-23T12:17:32;23.70;50.30
75615;DHT22;64199;48.578;-4.520;2023-02-23T12:20:08;23.70;50.30
75615;DHT22;64199;48.578;-4.520;2023-02-23T12:22:38;23.70;50.30
75615;DHT22;64199;48.578;-4.520;2023-02-23T12:25:15;23.60;50.30
75615;DHT22;64199;48.578;-4.520;2023-02-23T12:30:19;23.50;50.90
75615;DHT22;64199;48.578;-4.520;2023-02-23T12:32:48;23.50;50.30
75615;DHT22;64199;48.578;-4.520;2023-02-23T12:35:19;23.40;50.30
75615;DHT22;64199;48.578;-4.520;2023-02-23T12:37:52;23.40;50.30
75615;DHT22;64199;48.578;-4.520;2023-02-23T12:40:26;23.30;50.40
75615;DHT22;64199;48.578;-4.520;2023-02-23T12:45:28;23.20;50.20
75615;DHT22;64199;48.578;-4.520;2023-02-23T12:48:05;23.10;50.10
75615;DHT22;64199;48.578;-4.520;2023-02-23T12:50:47;23.10;50.00
75615;DHT22;64199;48.578;-4.520;2023-02-23T12:54:01;23.00;49.90
75615;DHT22;64199;48.578;-4.520;2023-02-23T13:03:26;22.70;50.20
75615;DHT22;64199;48.578;-4.520;2023-02-23T13:10:53;22.60;50.70
75615;DHT22;64199;48.578;-4.520;2023-02-23T13:15:49;22.40;50.60
75615;DHT22;64199;48.578;-4.520;2023-02-23T13:18:28;22.40;50.80
75615;DHT22;64199;48.578;-4.520;2023-02-23T13:26:26;22.20;50.60
75615;DHT22;64199;48.578;-4.520;2023-02-23T13:31:25;22.10;50.50
75615;DHT22;64199;48.578;-4.520;2023-02-23T13:33:53;22.10;50.60
75615;DHT22;64199;48.578;-4.520;2023-02-23T13:36:20;22.00;50.50
75615;DHT22;64199;48.578;-4.520;2023-02-23T13:47:00;21.70;50.60
75615;DHT22;64199;48.578;-4.520;2023-02-23T13:52:08;21.60;50.60
75615;DHT22;64199;48.578;-4.520;2023-02-23T13:54:35;21.60;50.70
75615;DHT22;64199;48.578;-4.520;2023-02-23T13:57:09;21.50;50.70
75615;DHT22;64199;48.578;-4.520;2023-02-23T13:59:37;21.50;50.70
75615;DHT22;64199;48.578;-4.520;2023-02-23T14:04:55;21.40;50.80
75615;DHT22;64199;48.578;-4.520;2023-02-23T14:07:26;21.30;50.90
75615;DHT22;64199;48.578;-4.520;2023-02-23T14:09:54;21.20;50.80
75615;DHT22;64199;48.578;-4.520;2023-02-23T14:25:46;21.00;51.30
75615;DHT22;64199;48.578;-4.520;2023-02-23T14:41:21;21.10;51.60
75615;DHT22;64199;48.578;-4.520;2023-02-23T14:43:50;21.20;51.00
75615;DHT22;64199;48.578;-4.520;2023-02-23T14:46:22;21.20;51.00
75615;DHT22;64199;48.578;-4.520;2023-02-23T14:48:55;21.20;51.00
75615;DHT22;64199;48.578;-4.520;2023-02-23T14:51:32;21.20;51.00
75615;DHT22;64199;48.578;-4.520;2023-02-23T14:54:00;21.30;51.10
75615;DHT22;64199;48.578;-4.520;2023-02-23T14:56:26;21.30;51.10
75615;DHT22;64199;48.578;-4.520;2023-02-23T14:58:53;21.30;51.10
75615;DHT22;64199;48.578;-4.520;2023-02-23T15:01:38;21.30;51.10
75615;DHT22;64199;48.578;-4.520;2023-02-23T15:04:08;21.30;51.10
75615;DHT22;64199;48.578;-4.520;2023-02-23T15:06:34;21.30;51.10
75615;DHT22;64199;48.578;-4.520;2023-02-23T15:09:00;21.40;51.20
75615;DHT22;64199;48.578;-4.520;2023-02-23T15:11:26;21.40;51.20
75615;DHT22;64199;48.578;-4.520;2023-02-23T15:13:53;21.40;51.20
75615;DHT22;64199;48.578;-4.520;2023-02-23T15:16:30;21.40;51.20
75615;DHT22;64199;48.578;-4.520;2023-02-23T15:18:57;21.40;51.20
75615;DHT22;64199;48.578;-4.520;2023-02-23T15:21:23;21.40;51.20
75615;DHT22;64199;48.578;-4.520;2023-02-23T15:23:51;21.50;51.20
75615;DHT22;64199;48.578;-4.520;2023-02-23T15:26:18;21.50;51.20
75615;DHT22;64199;48.578;-4.520;2023-02-23T15:28:49;21.50;51.20
75615;DHT22;64199;48.578;-4.520;2023-02-23T15:31:15;21.50;51.30
75615;DHT22;64199;48.578;-4.520;2023-02-23T15:33:41;21.50;51.20
75615;DHT22;64199;48.578;-4.520;2023-02-23T15:36:08;21.50;51.20
75615;DHT22;64199;48.578;-4.520;2023-02-23T15:38:38;21.60;51.30
75615;DHT22;64199;48.578;-4.520;2023-02-23T15:41:06;21.60;51.30
75615;DHT22;64199;48.578;-4.520;2023-02-23T15:43:32;21.60;51.30
75615;DHT22;64199;48.578;-4.520;2023-02-23T15:45:59;21.60;51.30
75615;DHT22;64199;48.578;-4.520;2023-02-23T15:48:36;21.60;51.20
75615;DHT22;64199;48.578;-4.520;2023-02-23T15:51:55;21.60;51.20
75615;DHT22;64199;48.578;-4.520;2023-02-23T15:53:59;21.60;51.20
75615;DHT22;64199;48.578;-4.520;2023-02-23T15:56:27;21.70;51.30
75615;DHT22;64199;48.578;-4.520;2023-02-23T15:59:12;21.70;51.20
75615;DHT22;64199;48.578;-4.520;2023-02-23T16:01:42;21.70;51.20
75615;DHT22;64199;48.578;-4.520;2023-02-23T16:06:38;21.70;51.20
75615;DHT22;64199;48.578;-4.520;2023-02-23T16:11:49;21.70;51.20
75615;DHT22;64199;48.578;-4.520;2023-02-23T16:14:16;21.80;51.20
75615;DHT22;64199;48.578;-4.520;2023-02-23T16:16:47;21.80;51.20
75615;DHT22;64199;48.578;-4.520;2023-02-23T16:19:17;21.80;51.20
75615;DHT22;64199;48.578;-4.520;2023-02-23T16:21:50;21.80;51.20
75615;DHT22;64199;48.578;-4.520;2023-02-23T16:24:33;21.80;51.20
75615;DHT22;64199;48.578;-4.520;2023-02-23T16:27:00;21.80;51.20
75615;DHT22;64199;48.578;-4.520;2023-02-23T16:29:33;21.80;51.20
75615;DHT22;64199;48.578;-4.520;2023-02-23T16:32:19;21.80;51.20
75615;DHT22;64199;48.578;-4.520;2023-02-23T16:34:48;21.90;51.20
75615;DHT22;64199;48.578;-4.520;2023-02-23T16:37:17;21.90;51.10
75615;DHT22;64199;48.578;-4.520;2023-02-23T16:39:43;21.90;51.20
75615;DHT22;64199;48.578;-4.520;2023-02-23T16:44:44;21.90;51.10
75615;DHT22;64199;48.578;-4.520;2023-02-23T16:47:25;21.90;51.00
75615;DHT22;64199;48.578;-4.520;2023-02-23T16:49:53;21.90;51.00
75615;DHT22;64199;48.578;-4.520;2023-02-23T16:52:20;21.90;51.00
75615;DHT22;64199;48.578;-4.520;2023-02-23T16:54:51;21.90;51.00
75615;DHT22;64199;48.578;-4.520;2023-02-23T16:57:19;21.90;51.00
75615;DHT22;64199;48.578;-4.520;2023-02-23T16:59:47;21.90;51.00
75615;DHT22;64199;48.578;-4.520;2023-02-23T17:02:15;21.90;51.60
75615;DHT22;64199;48.578;-4.520;2023-02-23T17:04:44;21.90;51.00
75615;DHT22;64199;48.578;-4.520;2023-02-23T17:07:14;22.00;51.00
75615;DHT22;64199;48.578;-4.520;2023-02-23T17:09:41;22.00;51.00
75615;DHT22;64199;48.578;-4.520;2023-02-23T17:12:13;22.00;51.00
75615;DHT22;64199;48.578;-4.520;2023-02-23T17:14:44;21.90;51.00
75615;DHT22;64199;48.578;-4.520;2023-02-23T17:17:12;22.00;51.00
75615;DHT22;64199;48.578;-4.520;2023-02-23T17:19:40;22.00;51.00
75615;DHT22;64199;48.578;-4.520;2023-02-23T17:22:05;22.00;51.00
75615;DHT22;64199;48.578;-4.520;2023-02-23T17:24:31;22.00;51.00
75615;DHT22;64199;48.578;-4.520;2023-02-23T17:26:57;22.00;51.00
75615;DHT22;64199;48.578;-4.520;2023-02-23T17:29:23;22.00;50.90
75615;DHT22;64199;48.578;-4.520;2023-02-23T17:31:49;22.00;50.90
75615;DHT22;64199;48.578;-4.520;2023-02-23T17:34:18;22.00;50.90
75615;DHT22;64199;48.578;-4.520;2023-02-23T17:36:43;22.00;51.00
75615;DHT22;64199;48.578;-4.520;2023-02-23T17:39:12;22.00;50.90
75615;DHT22;64199;48.578;-4.520;2023-02-23T17:41:44;22.00;50.90
75615;DHT22;64199;48.578;-4.520;2023-02-23T17:44:10;22.00;50.90
75615;DHT22;64199;48.578;-4.520;2023-02-23T17:46:35;22.00;50.90
75615;DHT22;64199;48.578;-4.520;2023-02-23T17:49:01;22.00;50.80